createdAt,value
2023-10-31T00:00:01.814Z,9.65
2023-10-31T00:02:28.362Z,9.64
2023-10-31T00:04:54.854Z,9.64
2023-10-31T00:07:21.385Z,9.63
2023-10-31T00:09:47.987Z,9.66
2023-10-31T00:12:14.499Z,9.68
2023-10-31T00:14:41.022Z,9.67
2023-10-31T00:17:07.592Z,9.66
2023-10-31T00:19:34.108Z,9.65
2023-10-31T00:22:01.659Z,9.67
2023-10-31T00:24:28.160Z,9.65
2023-10-31T00:26:54.649Z,9.65
2023-10-31T00:29:21.189Z,9.64
2023-10-31T00:31:47.676Z,9.64
2023-10-31T00:34:14.206Z,9.66
2023-10-31T00:36:40.721Z,9.66
2023-10-31T00:39:07.275Z,9.68
2023-10-31T00:41:33.815Z,9.67
2023-10-31T00:44:00.448Z,9.66
2023-10-31T00:46:27.007Z,9.66
2023-10-31T00:48:53.509Z,9.69
2023-10-31T00:51:20.205Z,9.70
2023-10-31T00:53:47.024Z,9.68
2023-10-31T00:56:13.541Z,9.67
2023-10-31T00:58:40.016Z,9.67
2023-10-31T01:01:06.609Z,9.67
2023-10-31T01:03:33.208Z,9.68
2023-10-31T01:05:59.841Z,9.68
2023-10-31T01:08:26.394Z,9.70
2023-10-31T01:10:53.047Z,9.69
2023-10-31T01:13:19.975Z,9.70
2023-10-31T01:15:46.575Z,9.72
2023-10-31T01:18:13.229Z,9.74
2023-10-31T01:20:40.158Z,9.75
2023-10-31T01:23:06.709Z,9.77
2023-10-31T01:25:33.287Z,9.77
2023-10-31T01:27:59.830Z,9.79
2023-10-31T01:30:26.294Z,9.80
2023-10-31T01:32:52.960Z,9.81
2023-10-31T01:35:19.577Z,9.82
2023-10-31T01:37:46.059Z,9.85
2023-10-31T01:40:15.569Z,9.87
2023-10-31T01:42:42.086Z,9.88
2023-10-31T01:45:09.382Z,9.94
2023-10-31T01:47:36.027Z,9.92
2023-10-31T01:50:02.766Z,9.95
2023-10-31T01:52:30.488Z,9.99
2023-10-31T01:54:57.661Z,9.97
2023-10-31T01:57:24.256Z,9.98
2023-10-31T01:59:50.813Z,9.98
2023-10-31T02:02:17.696Z,9.96
2023-10-31T02:04:44.369Z,9.96
2023-10-31T02:07:11.009Z,9.94
2023-10-31T02:09:37.509Z,9.95
2023-10-31T02:12:04.470Z,9.97
2023-10-31T02:14:30.943Z,9.99
2023-10-31T02:16:57.513Z,10.00
2023-10-31T02:19:24.106Z,10.02
2023-10-31T02:21:50.578Z,10.03
2023-10-31T02:24:17.152Z,10.04
2023-10-31T02:26:43.673Z,10.01
2023-10-31T02:29:10.240Z,9.99
2023-10-31T02:31:36.873Z,10.00
2023-10-31T02:34:03.489Z,10.01
2023-10-31T02:36:30.120Z,10.01
2023-10-31T02:38:56.711Z,10.02
2023-10-31T02:41:24.284Z,10.06
2023-10-31T02:43:51.569Z,10.07
2023-10-31T02:46:19.036Z,10.08
2023-10-31T02:48:45.601Z,10.09
2023-10-31T02:51:12.252Z,10.09
2023-10-31T02:53:38.762Z,10.08
2023-10-31T02:56:05.503Z,10.08
2023-10-31T02:58:32.003Z,10.07
2023-10-31T03:00:58.494Z,10.08
2023-10-31T03:03:25.077Z,10.07
2023-10-31T03:05:51.596Z,10.07
2023-10-31T03:08:21.678Z,10.05
2023-10-31T03:10:51.768Z,10.05
2023-10-31T03:13:21.548Z,10.04
2023-10-31T03:15:48.673Z,10.03
2023-10-31T03:18:15.944Z,10.05
2023-10-31T03:20:45.749Z,10.07
2023-10-31T03:23:12.372Z,10.07
2023-10-31T03:25:39.043Z,10.09
2023-10-31T03:28:08.680Z,10.08
2023-10-31T03:30:35.153Z,10.09
2023-10-31T03:33:02.369Z,10.09
2023-10-31T03:35:28.872Z,10.10
2023-10-31T03:37:55.401Z,10.09
2023-10-31T03:40:21.905Z,10.09
2023-10-31T03:42:48.373Z,10.09
2023-10-31T03:45:14.883Z,10.09
2023-10-31T03:47:41.428Z,10.07
2023-10-31T03:50:09.657Z,10.07
2023-10-31T03:52:36.133Z,10.05
2023-10-31T03:55:02.828Z,10.06
2023-10-31T03:57:29.306Z,10.04
2023-10-31T03:59:55.778Z,10.05
2023-10-31T04:02:22.298Z,10.05
2023-10-31T04:04:48.811Z,10.03
2023-10-31T04:07:16.098Z,10.03
2023-10-31T04:09:42.768Z,9.98
2023-10-31T04:12:09.396Z,10.01
2023-10-31T04:14:36.011Z,9.97
2023-10-31T04:17:02.608Z,9.96
2023-10-31T04:19:29.162Z,9.94
2023-10-31T04:21:55.731Z,9.92
2023-10-31T04:24:22.192Z,9.93
2023-10-31T04:26:48.719Z,9.93
2023-10-31T04:29:15.268Z,9.90
2023-10-31T04:31:44.420Z,9.93
2023-10-31T04:34:11.396Z,9.92
2023-10-31T04:36:37.922Z,9.94
2023-10-31T04:39:05.555Z,9.96
2023-10-31T04:41:32.298Z,9.94
2023-10-31T04:43:58.899Z,9.93
2023-10-31T04:46:28.410Z,9.93
2023-10-31T04:48:54.988Z,9.90
2023-10-31T04:51:21.653Z,9.88
2023-10-31T04:53:48.358Z,9.87
2023-10-31T04:56:16.101Z,9.85
2023-10-31T04:58:43.662Z,9.80
2023-10-31T05:01:14.202Z,9.83
2023-10-31T05:03:40.819Z,9.84
2023-10-31T05:06:07.564Z,9.82
2023-10-31T05:08:34.080Z,9.79
2023-10-31T05:11:00.634Z,9.76
2023-10-31T05:13:27.206Z,9.76
2023-10-31T05:15:53.733Z,9.73
2023-10-31T05:18:20.621Z,9.72
2023-10-31T05:20:47.091Z,9.73
2023-10-31T05:23:14.003Z,9.74
2023-10-31T05:25:40.655Z,9.69
2023-10-31T05:28:07.154Z,9.67
2023-10-31T05:30:33.634Z,9.66
2023-10-31T05:33:00.183Z,9.62
2023-10-31T05:35:26.865Z,9.61
2023-10-31T05:37:53.425Z,9.62
2023-10-31T05:40:20.142Z,9.59
2023-10-31T05:42:46.648Z,9.62
2023-10-31T05:45:13.252Z,9.58
2023-10-31T05:47:40.175Z,9.55
2023-10-31T05:50:07.613Z,9.55
2023-10-31T05:52:34.206Z,9.56
2023-10-31T05:55:00.846Z,9.54
2023-10-31T05:57:27.389Z,9.52
2023-10-31T05:59:53.837Z,9.50
2023-10-31T06:02:20.337Z,9.51
2023-10-31T06:04:46.997Z,9.52
2023-10-31T06:07:13.613Z,9.51
2023-10-31T06:09:40.118Z,9.51
2023-10-31T06:12:06.769Z,9.50
2023-10-31T06:14:33.317Z,9.48
2023-10-31T06:17:01.083Z,9.51
2023-10-31T06:19:27.591Z,9.54
2023-10-31T06:21:54.049Z,9.53
2023-10-31T06:24:20.562Z,9.53
2023-10-31T06:26:47.045Z,9.53
2023-10-31T06:29:37.075Z,9.54
2023-10-31T06:32:00.138Z,9.53
2023-10-31T06:34:26.705Z,9.53
2023-10-31T06:36:53.441Z,9.53
2023-10-31T06:39:20.126Z,9.53
2023-10-31T06:41:46.748Z,9.52
2023-10-31T06:44:13.711Z,9.50
2023-10-31T06:46:40.237Z,9.49
2023-10-31T06:49:06.719Z,9.51
2023-10-31T06:51:33.240Z,9.50
2023-10-31T06:53:59.747Z,9.51
2023-10-31T06:56:26.222Z,9.51
2023-10-31T06:58:52.902Z,9.52
2023-10-31T07:01:20.657Z,9.50
2023-10-31T07:03:48.549Z,9.53
2023-10-31T07:06:15.153Z,9.52
2023-10-31T07:08:41.672Z,9.52
2023-10-31T07:11:08.241Z,9.52
2023-10-31T07:13:34.796Z,9.53
2023-10-31T07:16:01.311Z,9.55
2023-10-31T07:18:27.830Z,9.55
2023-10-31T07:20:54.584Z,9.57
2023-10-31T07:23:21.280Z,9.59
2023-10-31T07:25:47.841Z,9.62
2023-10-31T07:28:14.327Z,9.62
2023-10-31T07:30:40.773Z,9.66
2023-10-31T07:33:07.524Z,9.67
2023-10-31T07:35:34.010Z,9.71
2023-10-31T07:38:00.609Z,9.75
2023-10-31T07:40:27.141Z,9.77
2023-10-31T07:42:53.635Z,9.78
2023-10-31T07:45:20.149Z,9.80
2023-10-31T07:47:46.667Z,9.82
2023-10-31T07:50:14.479Z,9.85
2023-10-31T07:52:41.186Z,9.88
2023-10-31T07:55:07.883Z,9.91
2023-10-31T07:57:34.426Z,9.96
2023-10-31T08:00:00.954Z,10.00
2023-10-31T08:02:27.567Z,10.05
2023-10-31T08:04:54.204Z,10.08
2023-10-31T08:07:20.762Z,10.10
2023-10-31T08:09:47.474Z,10.13
2023-10-31T08:12:14.018Z,10.13
2023-10-31T08:14:40.519Z,10.15
2023-10-31T08:17:07.122Z,10.17
2023-10-31T08:19:33.616Z,10.18
2023-10-31T08:22:00.110Z,10.20
2023-10-31T08:24:26.576Z,10.26
2023-10-31T08:26:53.118Z,10.29
2023-10-31T08:29:19.702Z,10.33
2023-10-31T08:31:46.215Z,10.36
2023-10-31T08:34:13.664Z,10.40
2023-10-31T08:36:40.269Z,10.42
2023-10-31T08:39:07.367Z,10.49
2023-10-31T08:41:34.635Z,10.54
2023-10-31T08:44:04.434Z,10.63
2023-10-31T08:46:31.041Z,10.76
2023-10-31T08:48:57.525Z,10.90
2023-10-31T08:51:24.453Z,11.02
2023-10-31T08:53:51.012Z,11.16
2023-10-31T08:56:17.524Z,11.22
2023-10-31T08:58:44.007Z,11.32
2023-10-31T09:01:10.942Z,11.35
2023-10-31T09:03:37.517Z,11.31
2023-10-31T09:06:04.612Z,11.28
2023-10-31T09:08:31.167Z,11.25
2023-10-31T09:10:57.748Z,11.33
2023-10-31T09:13:24.244Z,11.40
2023-10-31T09:15:51.166Z,11.47
2023-10-31T09:18:17.899Z,11.52
2023-10-31T09:20:44.433Z,11.61
2023-10-31T09:23:11.022Z,11.68
2023-10-31T09:25:37.693Z,11.80
2023-10-31T09:28:04.333Z,11.86
2023-10-31T09:30:30.852Z,11.94
2023-10-31T09:32:57.493Z,12.02
2023-10-31T09:35:24.202Z,12.11
2023-10-31T09:37:50.909Z,12.16
2023-10-31T09:40:17.508Z,12.17
2023-10-31T09:42:46.023Z,12.20
2023-10-31T09:45:13.122Z,12.34
2023-10-31T09:47:40.004Z,12.41
2023-10-31T09:50:08.314Z,12.42
2023-10-31T09:52:35.036Z,12.47
2023-10-31T09:55:02.831Z,12.57
2023-10-31T09:57:29.976Z,12.62
2023-10-31T09:59:56.706Z,12.57
2023-10-31T10:02:23.444Z,12.59
2023-10-31T10:04:50.515Z,12.64
2023-10-31T10:07:17.957Z,12.68
2023-10-31T10:09:45.479Z,12.80
2023-10-31T10:12:18.940Z,13.00
2023-10-31T10:14:46.948Z,13.17
2023-10-31T10:17:23.036Z,13.44
2023-10-31T10:20:05.396Z,13.57
2023-10-31T10:22:31.944Z,13.56
2023-10-31T10:24:58.746Z,13.51
2023-10-31T10:27:25.453Z,13.60
2023-10-31T10:29:55.300Z,13.67
2023-10-31T10:32:21.881Z,13.60
2023-10-31T10:34:48.426Z,13.66
2023-10-31T10:37:14.950Z,13.67
2023-10-31T10:39:42.076Z,13.63
2023-10-31T10:42:14.629Z,13.60
2023-10-31T10:44:45.782Z,13.58
2023-10-31T10:47:14.005Z,13.54
2023-10-31T10:49:43.277Z,13.46
2023-10-31T10:52:28.738Z,13.41
2023-10-31T10:55:08.183Z,13.43
2023-10-31T10:57:52.867Z,13.51
2023-10-31T11:00:21.117Z,13.52
2023-10-31T11:02:49.041Z,13.68
2023-10-31T11:05:16.859Z,13.67
2023-10-31T11:07:44.220Z,13.81
2023-10-31T11:10:11.439Z,13.83
2023-10-31T11:12:39.941Z,13.85
2023-10-31T11:15:08.264Z,13.81
2023-10-31T11:17:38.336Z,13.79
2023-10-31T11:20:06.256Z,13.72
2023-10-31T11:22:43.671Z,13.71
2023-10-31T11:25:16.734Z,13.59
2023-10-31T11:27:50.783Z,13.54
2023-10-31T11:30:35.607Z,13.55
2023-10-31T11:33:03.276Z,13.57
2023-10-31T11:35:31.790Z,13.75
2023-10-31T11:38:05.981Z,14.03
2023-10-31T11:40:33.064Z,14.19
2023-10-31T11:43:05.761Z,14.13
2023-10-31T11:45:35.540Z,13.93
2023-10-31T11:48:02.072Z,13.80
2023-10-31T11:50:28.750Z,13.80
2023-10-31T11:53:06.515Z,13.75
2023-10-31T11:55:36.553Z,13.64
2023-10-31T11:58:16.271Z,13.60
2023-10-31T12:00:42.914Z,13.57
2023-10-31T12:03:09.598Z,13.51
2023-10-31T12:05:36.255Z,13.37
2023-10-31T12:08:03.176Z,13.21
2023-10-31T12:10:33.897Z,13.14
2023-10-31T12:13:00.433Z,13.01
2023-10-31T12:15:27.302Z,12.94
2023-10-31T12:17:59.092Z,12.88
2023-10-31T12:20:26.189Z,12.95
2023-10-31T12:23:05.323Z,12.97
2023-10-31T12:25:34.013Z,12.92
2023-10-31T12:28:00.561Z,12.78
2023-10-31T12:30:27.114Z,12.72
2023-10-31T12:32:58.291Z,12.68
2023-10-31T12:35:27.202Z,12.64
2023-10-31T12:37:54.564Z,12.61
2023-10-31T12:40:23.090Z,12.58
2023-10-31T12:42:51.092Z,12.62
2023-10-31T12:45:19.834Z,12.72
2023-10-31T12:48:00.792Z,12.72
2023-10-31T12:50:27.375Z,12.78
2023-10-31T12:52:55.753Z,12.83
2023-10-31T12:55:24.514Z,12.90
2023-10-31T12:57:52.614Z,12.95
2023-10-31T13:00:25.547Z,13.01
2023-10-31T13:03:07.066Z,13.12
2023-10-31T13:05:41.327Z,13.10
2023-10-31T13:08:17.763Z,13.00
2023-10-31T13:10:44.822Z,12.97
2023-10-31T13:13:13.300Z,12.98
2023-10-31T13:15:40.300Z,12.92
2023-10-31T13:18:06.903Z,12.91
2023-10-31T13:20:33.550Z,12.88
2023-10-31T13:23:03.600Z,12.85
2023-10-31T13:25:32.428Z,12.80
2023-10-31T13:27:59.022Z,12.79
2023-10-31T13:30:26.531Z,12.78
2023-10-31T13:32:54.379Z,12.86
2023-10-31T13:37:47.819Z,12.91
2023-10-31T13:40:14.881Z,12.96
2023-10-31T13:42:41.504Z,12.94
2023-10-31T13:45:08.503Z,12.90
2023-10-31T13:47:35.159Z,12.88
2023-10-31T13:50:02.105Z,12.89
2023-10-31T13:52:28.682Z,12.85
2023-10-31T13:54:55.244Z,12.77
2023-10-31T13:57:22.908Z,12.69
2023-10-31T13:59:51.721Z,12.62
2023-10-31T14:02:18.633Z,12.56
2023-10-31T14:04:45.673Z,12.58
2023-10-31T14:07:21.519Z,12.55
2023-10-31T14:09:49.174Z,12.61
2023-10-31T14:12:15.738Z,12.65
2023-10-31T14:14:42.259Z,12.68
2023-10-31T14:17:08.740Z,12.66
2023-10-31T14:19:35.245Z,12.66
2023-10-31T14:22:02.195Z,12.66
2023-10-31T14:24:28.826Z,12.68
2023-10-31T14:26:55.312Z,12.65
2023-10-31T14:29:22.221Z,12.61
2023-10-31T14:31:48.879Z,12.56
2023-10-31T14:34:15.431Z,12.54
2023-10-31T14:36:42.713Z,12.52
2023-10-31T14:39:11.189Z,12.54
2023-10-31T14:41:37.896Z,12.56
2023-10-31T14:44:04.591Z,12.51
2023-10-31T14:46:31.415Z,12.49
2023-10-31T14:48:58.137Z,12.46
2023-10-31T14:51:24.776Z,12.41
2023-10-31T14:53:51.325Z,12.36
2023-10-31T14:56:18.104Z,12.27
2023-10-31T14:58:44.688Z,12.14
2023-10-31T15:01:11.370Z,11.99
2023-10-31T15:03:38.194Z,11.92
2023-10-31T15:06:09.122Z,11.82
2023-10-31T15:08:35.730Z,11.72
2023-10-31T15:11:02.636Z,11.67
2023-10-31T15:13:29.334Z,11.63
2023-10-31T15:15:55.886Z,11.61
2023-10-31T15:18:23.162Z,11.55
2023-10-31T15:20:49.982Z,11.53
2023-10-31T15:23:16.525Z,11.53
2023-10-31T15:25:43.061Z,11.50
2023-10-31T15:28:09.647Z,11.47
2023-10-31T15:30:36.242Z,11.45
2023-10-31T15:33:02.846Z,11.38
2023-10-31T15:35:29.461Z,11.33
2023-10-31T15:37:55.989Z,11.27
2023-10-31T15:40:22.523Z,11.22
2023-10-31T15:42:49.050Z,11.22
2023-10-31T15:45:15.570Z,11.20
2023-10-31T15:47:42.210Z,11.21
2023-10-31T15:50:09.177Z,11.24
2023-10-31T15:52:35.709Z,11.24
2023-10-31T15:55:02.804Z,11.25
2023-10-31T15:57:29.429Z,11.26
2023-10-31T15:59:55.923Z,11.27
2023-10-31T16:02:22.469Z,11.29
2023-10-31T16:04:49.004Z,11.29
2023-10-31T16:07:15.530Z,11.26
2023-10-31T16:09:42.314Z,11.26
2023-10-31T16:12:10.190Z,11.19
2023-10-31T16:14:36.962Z,11.17
2023-10-31T16:17:06.592Z,11.16
2023-10-31T16:19:34.547Z,11.10
2023-10-31T16:22:02.921Z,11.06
2023-10-31T16:24:29.556Z,11.07
2023-10-31T16:26:56.111Z,11.08
2023-10-31T16:29:22.701Z,11.06
2023-10-31T16:31:49.391Z,11.07
2023-10-31T16:34:16.092Z,11.07
2023-10-31T16:36:42.610Z,11.08
2023-10-31T16:39:09.186Z,11.09
2023-10-31T16:41:35.894Z,11.07
2023-10-31T16:44:02.417Z,11.07
2023-10-31T16:46:29.069Z,11.07
2023-10-31T16:48:55.627Z,11.07
2023-10-31T16:51:23.694Z,11.05
2023-10-31T16:53:50.336Z,11.04
2023-10-31T16:56:17.834Z,11.03
2023-10-31T16:58:46.706Z,11.04
2023-10-31T17:01:14.368Z,11.07
2023-10-31T17:03:41.047Z,11.07
2023-10-31T17:06:08.297Z,11.07
2023-10-31T17:08:34.976Z,11.05
2023-10-31T17:11:01.879Z,11.07
2023-10-31T17:13:28.496Z,11.05
2023-10-31T17:15:55.029Z,11.06
2023-10-31T17:18:21.635Z,11.03
2023-10-31T17:20:49.007Z,11.00
2023-10-31T17:23:15.797Z,10.99
2023-10-31T17:25:43.281Z,10.94
2023-10-31T17:28:10.029Z,10.92
2023-10-31T17:30:36.628Z,10.95
2023-10-31T17:33:03.282Z,10.96
2023-10-31T17:35:30.085Z,10.97
2023-10-31T17:37:56.589Z,10.98
2023-10-31T17:40:23.770Z,10.98
2023-10-31T17:42:50.491Z,10.97
2023-10-31T17:45:18.921Z,10.97
2023-10-31T17:47:45.522Z,10.98
2023-10-31T17:50:12.131Z,10.97
2023-10-31T17:52:38.877Z,10.98
2023-10-31T17:55:05.723Z,10.98
2023-10-31T17:57:32.247Z,10.99
2023-10-31T17:59:58.767Z,10.99
2023-10-31T18:02:25.319Z,10.98
2023-10-31T18:04:51.821Z,10.96
2023-10-31T18:07:20.601Z,10.95
2023-10-31T18:09:49.935Z,10.93
2023-10-31T18:12:18.206Z,10.91
2023-10-31T18:14:44.746Z,10.90
2023-10-31T18:17:11.200Z,10.92
2023-10-31T18:19:37.904Z,10.91
2023-10-31T18:22:04.440Z,10.93
2023-10-31T18:24:30.973Z,10.92
2023-10-31T18:26:57.503Z,10.92
2023-10-31T18:29:23.992Z,10.87
2023-10-31T18:31:50.507Z,10.88
2023-10-31T18:34:17.087Z,10.87
2023-10-31T18:36:43.577Z,10.87
2023-10-31T18:39:10.803Z,10.83
2023-10-31T18:41:40.248Z,10.81
2023-10-31T18:44:22.001Z,10.79
2023-10-31T18:46:53.443Z,10.77
2023-10-31T18:49:19.947Z,10.75
2023-10-31T18:51:46.459Z,10.74
2023-10-31T18:54:13.103Z,10.71
2023-10-31T18:56:39.638Z,10.72
2023-10-31T18:59:06.979Z,10.69
2023-10-31T19:01:33.724Z,10.70
2023-10-31T19:04:00.589Z,10.71
2023-10-31T19:06:27.125Z,10.72
2023-10-31T19:08:53.622Z,10.73
2023-10-31T19:11:20.187Z,10.73
2023-10-31T19:13:46.988Z,10.75
2023-10-31T19:16:13.862Z,10.77
2023-10-31T19:18:40.413Z,10.77
2023-10-31T19:21:07.308Z,10.76
2023-10-31T19:23:34.676Z,10.73
2023-10-31T19:26:01.414Z,10.72
2023-10-31T19:28:28.184Z,10.73
2023-10-31T19:30:54.740Z,10.73
2023-10-31T19:33:21.294Z,10.73
2023-10-31T19:35:47.891Z,10.75
2023-10-31T19:38:14.456Z,10.75
2023-10-31T19:40:41.075Z,10.76
2023-10-31T19:43:07.678Z,10.79
2023-10-31T19:45:34.168Z,10.81
2023-10-31T19:48:00.855Z,10.80
2023-10-31T19:50:27.453Z,10.83
2023-10-31T19:52:54.003Z,10.86
2023-10-31T19:55:21.524Z,10.86
2023-10-31T19:57:49.471Z,10.85
2023-10-31T20:00:16.541Z,10.87
2023-10-31T20:02:45.269Z,10.90
2023-10-31T20:05:13.532Z,10.89
2023-10-31T20:07:40.361Z,10.90
2023-10-31T20:10:07.419Z,10.92
2023-10-31T20:12:33.924Z,10.92
2023-10-31T20:15:02.299Z,10.92
2023-10-31T20:17:29.434Z,10.95
2023-10-31T20:19:56.113Z,10.97
2023-10-31T20:22:22.747Z,10.97
2023-10-31T20:24:49.291Z,10.97
2023-10-31T20:27:15.913Z,10.96
2023-10-31T20:29:43.930Z,10.96
2023-10-31T20:32:10.601Z,10.96
2023-10-31T20:34:37.130Z,10.96
2023-10-31T20:37:03.715Z,10.95
2023-10-31T20:39:30.242Z,10.92
2023-10-31T20:41:56.753Z,10.92
2023-10-31T20:44:23.297Z,10.92
2023-10-31T20:46:50.421Z,10.92
2023-10-31T20:49:17.096Z,10.90
2023-10-31T20:51:45.070Z,10.86
2023-10-31T20:54:12.364Z,10.86
2023-10-31T20:56:38.944Z,10.84
2023-10-31T20:59:05.507Z,10.83
2023-10-31T21:01:33.826Z,10.82
2023-10-31T21:04:01.728Z,10.80
2023-10-31T21:06:29.712Z,10.81
2023-10-31T21:08:56.217Z,10.83
2023-10-31T21:11:23.177Z,10.83
2023-10-31T21:13:51.015Z,10.80
2023-10-31T21:16:17.942Z,10.82
2023-10-31T21:18:44.516Z,10.78
2023-10-31T21:21:11.530Z,10.79
2023-10-31T21:23:38.092Z,10.78
2023-10-31T21:26:05.171Z,10.73
2023-10-31T21:28:33.097Z,10.68
2023-10-31T21:30:59.912Z,10.61
2023-10-31T21:33:27.146Z,10.58
2023-10-31T21:35:54.573Z,10.57
2023-10-31T21:38:21.133Z,10.56
2023-10-31T21:40:47.732Z,10.58
2023-10-31T21:43:15.966Z,10.62
2023-10-31T21:45:42.555Z,10.61
2023-10-31T21:48:11.365Z,10.61
2023-10-31T21:50:38.022Z,10.61
2023-10-31T21:53:04.874Z,10.61
2023-10-31T21:55:31.404Z,10.56
2023-10-31T21:57:58.092Z,10.58
2023-10-31T22:00:24.548Z,10.58
2023-10-31T22:02:51.240Z,10.59
2023-10-31T22:05:17.936Z,10.60
2023-10-31T22:07:44.595Z,10.55
2023-10-31T22:10:11.197Z,10.56
2023-10-31T22:12:37.758Z,10.55
2023-10-31T22:15:05.433Z,10.55
2023-10-31T22:17:32.403Z,10.53
2023-10-31T22:20:01.534Z,10.52
2023-10-31T22:22:28.150Z,10.53
2023-10-31T22:24:54.658Z,10.55
2023-10-31T22:27:21.165Z,10.57
2023-10-31T22:29:47.671Z,10.59
2023-10-31T22:32:14.591Z,10.61
2023-10-31T22:34:41.103Z,10.60
2023-10-31T22:37:07.592Z,10.63
2023-10-31T22:39:34.120Z,10.67
2023-10-31T22:42:00.628Z,10.72
2023-10-31T22:44:27.148Z,10.75
2023-10-31T22:46:53.671Z,10.75
2023-10-31T22:49:20.244Z,10.76
2023-10-31T22:51:46.720Z,10.81
2023-10-31T22:54:13.244Z,10.82
2023-10-31T22:56:39.786Z,10.86
2023-10-31T22:59:06.435Z,10.87
2023-10-31T23:01:32.941Z,10.89
2023-10-31T23:03:59.464Z,10.87
2023-10-31T23:06:28.889Z,10.86
2023-10-31T23:08:56.336Z,10.88
2023-10-31T23:11:24.832Z,10.89
2023-10-31T23:13:51.603Z,10.86
2023-10-31T23:16:18.216Z,10.87
2023-10-31T23:18:44.784Z,10.90
2023-10-31T23:21:11.339Z,10.93
2023-10-31T23:23:37.859Z,10.95
2023-10-31T23:26:04.670Z,10.98
2023-10-31T23:28:31.204Z,10.99
2023-10-31T23:30:58.857Z,11.04
2023-10-31T23:33:27.272Z,11.04
2023-10-31T23:35:54.764Z,11.07
2023-10-31T23:38:21.331Z,11.05
2023-10-31T23:40:47.851Z,11.03
2023-10-31T23:43:14.593Z,11.03
2023-10-31T23:45:41.722Z,10.98
2023-10-31T23:48:08.510Z,10.96
2023-10-31T23:50:35.381Z,10.96
2023-10-31T23:53:03.334Z,10.94
2023-10-31T23:55:29.881Z,10.93
2023-10-31T23:57:56.624Z,10.89
